Time;durP1;ratioP1;P1;durP2;ratioP2;P2;SDS_P1;SDS_P2;PMS_P1;PMS_P2;Temp;Humidity;BMP_temperature;BMP_pressure;BME280_temperature;BME280_humidity;BME280_pressure;Samples;Min_cycle;Max_cycle;Signal;HPM_P1;HPM_P2
2024/02/15 00:02:20;;;;;;;8.38;4.38;;;;;;;11.26;100.00;100434.66;5046534;28;20044;-71
2024/02/15 00:04:46;;;;;;;7.88;4.50;;;;;;;11.24;100.00;100423.00;5058023;28;20020;-70
2024/02/15 00:07:11;;;;;;;7.50;4.22;;;;;;;11.24;100.00;100424.97;5086795;28;20742;-70
2024/02/15 00:09:37;;;;;;;10.80;4.75;;;;;;;11.24;100.00;100420.22;5074127;28;20025;-71
2024/02/15 00:12:02;;;;;;;9.07;4.78;;;;;;;11.22;100.00;100422.47;5052889;28;20032;-71
2024/02/15 00:14:28;;;;;;;7.25;4.40;;;;;;;11.25;100.00;100424.66;5057623;28;20028;-71
2024/02/15 00:16:54;;;;;;;8.50;4.68;;;;;;;11.26;100.00;100426.31;5052952;28;20390;-70
2024/02/15 00:19:21;;;;;;;8.00;4.88;;;;;;;11.26;100.00;100419.94;5057483;28;20028;-70
2024/02/15 00:21:47;;;;;;;9.90;5.03;;;;;;;11.23;100.00;100420.53;5067757;28;20033;-71
2024/02/15 00:24:12;;;;;;;8.48;4.88;;;;;;;11.23;100.00;100417.75;5055775;28;20043;-71
2024/02/15 00:26:38;;;;;;;11.02;5.00;;;;;;;11.23;100.00;100415.81;5067659;28;20032;-70
2024/02/15 00:29:04;;;;;;;8.93;4.40;;;;;;;11.23;100.00;100409.41;5066934;28;20651;-71
2024/02/15 00:31:29;;;;;;;9.60;4.95;;;;;;;11.22;100.00;100413.31;5081635;28;20032;-70
2024/02/15 00:33:55;;;;;;;8.25;4.70;;;;;;;11.22;100.00;100410.53;5062922;28;20039;-71
2024/02/15 00:36:20;;;;;;;7.20;4.82;;;;;;;11.21;100.00;100406.13;5069893;28;20032;-71
2024/02/15 00:38:46;;;;;;;9.10;5.43;;;;;;;11.21;100.00;100408.91;5073279;28;20032;-71
2024/02/15 00:41:11;;;;;;;7.88;5.03;;;;;;;11.19;100.00;100398.88;5069489;28;20471;-71
2024/02/15 00:43:37;;;;;;;12.07;5.15;;;;;;;11.21;100.00;100395.81;5046457;28;20033;-70
2024/02/15 00:46:03;;;;;;;9.32;5.13;;;;;;;11.17;100.00;100398.38;5043309;28;20025;-71
2024/02/15 00:48:31;;;;;;;10.68;5.57;;;;;;;11.14;100.00;100385.09;5056795;28;20051;-70
2024/02/15 00:50:57;;;;;;;11.77;5.50;;;;;;;11.16;100.00;100377.25;5047267;28;20435;-70
2024/02/15 00:53:23;;;;;;;11.30;5.25;;;;;;;11.13;100.00;100366.75;5037833;28;20556;-71
2024/02/15 00:55:48;;;;;;;9.98;5.50;;;;;;;11.13;100.00;100366.75;5062019;28;20040;-70
2024/02/15 00:58:14;;;;;;;8.82;5.10;;;;;;;11.13;100.00;100357.59;5090407;28;20028;-70
2024/02/15 01:00:39;;;;;;;9.30;5.80;;;;;;;11.14;100.00;100359.22;5066009;28;20036;-71
2024/02/15 01:03:05;;;;;;;11.88;5.68;;;;;;;11.13;100.00;100355.63;5039389;28;20050;-70
2024/02/15 01:05:30;;;;;;;12.05;6.38;;;;;;;11.14;100.00;100356.44;5066347;28;20040;-71
2024/02/15 01:07:56;;;;;;;11.73;6.22;;;;;;;11.14;100.00;100356.44;5056149;28;20474;-70
2024/02/15 01:10:23;;;;;;;9.45;5.97;;;;;;;11.13;100.00;100352.84;5050095;28;20028;-70
2024/02/15 01:12:49;;;;;;;9.00;5.55;;;;;;;11.12;100.00;100353.16;5072918;28;20083;-71
2024/02/15 01:15:18;;;;;;;11.32;5.80;;;;;;;11.13;100.00;100354.81;5045316;28;20081;-71
2024/02/15 01:17:44;;;;;;;8.77;5.45;;;;;;;11.14;100.00;100346.19;5072314;28;20024;-71
2024/02/15 01:20:10;;;;;;;12.50;6.55;;;;;;;11.16;100.00;100356.97;5065108;28;20043;-71
2024/02/15 01:22:36;;;;;;;10.55;6.15;;;;;;;11.15;100.00;100353.38;5089820;28;20040;-71
2024/02/15 01:25:01;;;;;;;13.75;6.93;;;;;;;11.13;100.00;100349.25;5066681;28;20021;-71
2024/02/15 01:27:30;;;;;;;10.90;6.50;;;;;;;11.14;100.00;100346.19;5088811;28;20024;-71
2024/02/15 01:29:56;;;;;;;8.60;6.15;;;;;;;11.14;100.00;100343.41;5069061;28;20428;-71
2024/02/15 01:32:21;;;;;;;9.85;6.38;;;;;;;11.14;100.00;100348.97;5071957;28;20059;-71
2024/02/15 01:34:47;;;;;;;9.50;6.55;;;;;;;11.13;100.00;100338.13;5069130;28;20035;-71
2024/02/15 01:37:12;;;;;;;11.95;6.18;;;;;;;11.12;100.00;100339.25;5071672;28;20032;-71
2024/02/15 01:39:38;;;;;;;9.95;5.82;;;;;;;11.12;100.00;100347.59;5052547;28;20028;-71
2024/02/15 01:42:03;;;;;;;13.38;6.03;;;;;;;11.13;100.00;100343.69;5071802;28;20039;-71
2024/02/15 01:44:29;;;;;;;10.57;6.07;;;;;;;11.13;100.00;100344.50;5025826;28;20036;-70
2024/02/15 01:46:55;;;;;;;10.88;6.18;;;;;;;11.11;100.00;100337.59;5047425;28;20094;-70
2024/02/15 01:49:22;;;;;;;11.85;6.85;;;;;;;11.12;100.00;100342.03;5074097;28;20028;-71
2024/02/15 01:51:49;;;;;;;9.73;6.40;;;;;;;11.11;100.00;100334.81;5057646;28;20032;-70
2024/02/15 01:54:17;;;;;;;12.63;6.85;;;;;;;11.12;100.00;100336.47;5023051;28;20060;-71
2024/02/15 01:56:43;;;;;;;11.68;6.68;;;;;;;11.09;100.00;100326.78;5053290;28;20037;-70
2024/02/15 01:59:09;;;;;;;11.55;6.97;;;;;;;11.10;100.00;100333.19;5027176;28;20103;-71
2024/02/15 02:01:34;;;;;;;10.23;6.78;;;;;;;11.10;100.00;100339.56;5057443;28;20040;-70
2024/02/15 02:04:00;;;;;;;12.25;7.20;;;;;;;11.09;100.00;100334.31;5073985;28;20029;-70
2024/02/15 02:06:25;;;;;;;11.05;6.93;;;;;;;11.09;100.00;100324.00;5074150;28;20054;-70
2024/02/15 02:08:51;;;;;;;11.40;6.13;;;;;;;11.10;100.00;100319.28;5057276;28;20590;-71
2024/02/15 02:11:16;;;;;;;10.10;7.15;;;;;;;11.09;100.00;100318.47;5056041;28;20025;-70
2024/02/15 02:13:42;;;;;;;12.30;7.28;;;;;;;11.11;100.00;100316.19;5053630;28;20083;-71
2024/02/15 02:16:29;;;;;;;10.48;6.88;;;;;;;11.11;100.00;100315.34;5057212;28;20412;-71
2024/02/15 02:18:56;;;;;;;9.63;6.97;;;;;;;11.07;100.00;100303.22;5074983;28;20115;-71
2024/02/15 02:21:22;;;;;;;10.13;6.20;;;;;;;11.05;100.00;100308.25;5049201;28;20087;-71
2024/02/15 02:23:51;;;;;;;10.90;6.75;;;;;;;11.05;100.00;100302.69;5057092;28;20056;-70
2024/02/15 02:26:16;;;;;;;10.50;6.82;;;;;;;11.04;100.00;100312.97;5041292;28;20105;-70
2024/02/15 02:28:42;;;;;;;11.25;6.85;;;;;;;11.03;100.00;100303.00;5057191;28;20032;-71
2024/02/15 02:31:11;;;;;;;12.23;7.75;;;;;;;11.03;100.00;100285.47;5071299;28;20044;-71
2024/02/15 02:33:37;;;;;;;12.88;7.20;;;;;;;11.05;100.00;100291.56;5048630;28;20728;-70
2024/02/15 02:36:02;;;;;;;11.75;7.63;;;;;;;11.04;100.00;100292.69;5055366;28;20036;-71
2024/02/15 02:38:28;;;;;;;13.57;8.15;;;;;;;11.03;100.00;100288.25;5040239;28;20031;-71
2024/02/15 02:40:53;;;;;;;11.27;7.03;;;;;;;11.04;100.00;100278.81;5073509;28;20440;-70
2024/02/15 02:43:19;;;;;;;12.48;7.03;;;;;;;11.04;100.00;100278.81;5074601;28;20078;-71
2024/02/15 02:45:45;;;;;;;10.82;7.07;;;;;;;11.04;100.00;100270.47;5078703;28;20021;-71
2024/02/15 02:48:11;;;;;;;10.43;7.15;;;;;;;11.02;100.00;100267.16;5061241;28;20054;-71
2024/02/15 02:50:37;;;;;;;10.50;6.70;;;;;;;11.03;100.00;100263.25;5040824;28;20037;-71
2024/02/15 02:53:02;;;;;;;12.00;7.53;;;;;;;11.01;100.00;100268.31;5061428;28;20031;-71
2024/02/15 02:55:28;;;;;;;9.30;6.70;;;;;;;11.01;100.00;100265.53;5052056;28;20032;-70
2024/02/15 02:57:54;;;;;;;10.90;7.38;;;;;;;11.01;100.00;100265.53;5045595;28;20050;-71
2024/02/15 03:00:20;;;;;;;13.10;6.93;;;;;;;11.00;100.00;100255.50;5070420;28;20056;-71
2024/02/15 03:02:46;;;;;;;12.88;7.65;;;;;;;10.99;100.00;100260.25;5069546;28;20446;-70
2024/02/15 03:05:12;;;;;;;11.32;7.57;;;;;;;11.00;100.00;100249.97;5066696;28;20076;-71
2024/02/15 03:07:38;;;;;;;11.82;7.55;;;;;;;10.98;100.00;100255.00;5037059;28;20051;-71
2024/02/15 03:10:04;;;;;;;16.92;8.52;;;;;;;10.99;100.00;100239.97;5033219;28;20107;-71
2024/02/15 03:12:30;;;;;;;14.13;7.90;;;;;;;10.99;100.00;100224.13;5070225;28;20081;-71
2024/02/15 03:14:56;;;;;;;13.18;8.50;;;;;;;11.01;100.00;100234.97;5066534;28;20036;-70
2024/02/15 03:17:25;;;;;;;15.15;8.93;;;;;;;10.99;100.00;100234.44;5070512;28;20046;-70
2024/02/15 03:19:51;;;;;;;10.98;7.90;;;;;;;10.98;100.00;100228.03;5063877;28;20029;-71
2024/02/15 03:22:17;;;;;;;17.42;9.30;;;;;;;10.99;100.00;100220.53;5054276;28;20065;-71
2024/02/15 03:24:42;;;;;;;10.50;7.63;;;;;;;10.99;100.00;100210.25;5081599;28;20024;-71
2024/02/15 03:27:10;;;;;;;17.48;9.00;;;;;;;10.98;100.00;100213.31;5038193;28;20047;-71
2024/02/15 03:29:35;;;;;;;11.05;7.85;;;;;;;10.98;100.00;100213.31;5068750;28;20033;-71
2024/02/15 03:32:04;;;;;;;14.13;8.30;;;;;;;10.94;100.00;100218.66;5075219;28;20442;-70
2024/02/15 03:34:31;;;;;;;13.55;7.30;;;;;;;10.94;100.00;100208.34;5036750;28;20031;-71
2024/02/15 03:36:56;;;;;;;13.27;8.13;;;;;;;10.95;100.00;100210.03;5075595;28;20024;-71
2024/02/15 03:39:23;;;;;;;15.38;7.93;;;;;;;10.95;100.00;100209.22;5070330;28;20056;-70
2024/02/15 03:41:50;;;;;;;10.43;7.63;;;;;;;10.92;100.00;100199.53;5075386;28;20040;-70
2024/02/15 03:44:18;;;;;;;11.48;7.15;;;;;;;10.94;100.00;100207.53;5063107;28;20036;-70
2024/02/15 03:46:43;;;;;;;12.52;8.88;;;;;;;10.94;100.00;100205.59;5049817;28;20392;-70
2024/02/15 03:49:10;;;;;;;10.88;7.07;;;;;;;10.92;100.00;100196.75;5058766;28;20047;-70
2024/02/15 03:51:36;;;;;;;13.73;7.97;;;;;;;10.89;100.00;100191.81;5023752;28;20653;-71
2024/02/15 03:54:04;;;;;;;11.18;7.40;;;;;;;10.90;100.00;100187.06;5027569;28;20029;-70
2024/02/15 03:56:31;;;;;;;11.65;8.02;;;;;;;10.90;100.00;100187.88;5039955;28;20063;-71
2024/02/15 03:58:57;;;;;;;13.77;7.32;;;;;;;10.89;100.00;100185.41;5056192;28;20032;-71
2024/02/15 04:01:23;;;;;;;12.18;6.85;;;;;;;10.88;100.00;100176.25;5039796;28;20082;-71
2024/02/15 04:03:49;;;;;;;16.20;7.97;;;;;;;10.87;100.00;100180.16;5039648;28;20060;-71
2024/02/15 04:06:14;;;;;;;12.35;8.32;;;;;;;10.86;100.00;100174.91;5023422;28;20078;-71
2024/02/15 04:08:40;;;;;;;11.48;7.38;;;;;;;10.87;100.00;100177.38;5022968;28;20033;-70
2024/02/15 04:11:10;;;;;;;11.95;7.00;;;;;;;10.86;100.00;100172.94;5039637;28;20036;-71
2024/02/15 04:13:35;;;;;;;13.02;7.60;;;;;;;10.86;100.00;100172.94;5040232;28;20029;-71
2024/02/15 04:16:01;;;;;;;14.73;7.28;;;;;;;10.85;100.00;100171.28;5023171;28;20036;-71
2024/02/15 04:18:26;;;;;;;12.27;7.55;;;;;;;10.87;100.00;100169.03;5039217;28;20481;-70
2024/02/15 04:20:52;;;;;;;13.55;7.95;;;;;;;10.87;100.00;100163.50;5031093;28;20029;-71
2024/02/15 04:23:19;;;;;;;10.77;7.03;;;;;;;10.85;100.00;100162.16;5057561;28;20045;-71
2024/02/15 04:25:46;;;;;;;11.27;6.82;;;;;;;10.84;100.00;100153.00;5039590;28;20033;-71
2024/02/15 04:28:12;;;;;;;10.15;7.10;;;;;;;10.83;100.00;100158.84;5007040;28;20476;-71
2024/02/15 04:30:38;;;;;;;11.23;7.25;;;;;;;10.83;100.00;100161.63;5022689;28;20021;-71
2024/02/15 04:33:05;;;;;;;12.48;7.07;;;;;;;10.79;100.00;100158.63;5055745;28;20033;-71
2024/02/15 04:35:30;;;;;;;11.07;6.65;;;;;;;10.79;100.00;100155.03;5023220;28;20029;-70
2024/02/15 04:37:56;;;;;;;14.45;7.43;;;;;;;10.77;100.00;100143.41;5039322;28;20036;-71
2024/02/15 04:40:21;;;;;;;9.35;6.68;;;;;;;10.75;100.00;100149.25;5021386;28;20059;-71
2024/02/15 04:42:47;;;;;;;11.20;6.50;;;;;;;10.74;100.00;100142.88;5055847;28;20426;-71
2024/02/15 04:45:14;;;;;;;10.00;6.75;;;;;;;10.70;100.00;100149.34;5049039;28;20037;-71
2024/02/15 04:47:40;;;;;;;10.55;6.07;;;;;;;10.69;100.00;100145.72;5046196;28;20095;-71
2024/02/15 04:50:09;;;;;;;12.02;6.50;;;;;;;10.70;100.00;100138.25;5073443;28;20081;-71
2024/02/15 04:52:34;;;;;;;9.57;6.38;;;;;;;10.69;100.00;100139.34;5065847;28;20035;-71
2024/02/15 04:55:00;;;;;;;9.15;6.28;;;;;;;10.66;100.00;100129.69;5082921;28;20028;-70
2024/02/15 04:57:27;;;;;;;13.77;6.97;;;;;;;10.65;100.00;100122.47;5067863;28;20159;-71
2024/02/15 04:59:56;;;;;;;10.02;6.22;;;;;;;10.64;100.00;100123.63;5064897;28;20028;-71
2024/02/15 05:02:24;;;;;;;11.27;6.10;;;;;;;10.65;100.00;100118.88;5052343;28;20021;-71
2024/02/15 05:04:56;;;;;;;10.85;6.45;;;;;;;10.61;100.00;100106.72;5072572;28;20421;-71
2024/02/15 05:07:22;;;;;;;9.18;5.38;;;;;;;10.63;100.00;100101.69;5054614;28;20027;-71
2024/02/15 05:09:48;;;;;;;10.75;6.05;;;;;;;10.60;100.00;100097.56;5070830;28;20039;-70
2024/02/15 05:12:27;;;;;;;8.13;5.75;;;;;;;10.62;100.00;100103.66;5069475;28;20024;-71
2024/02/15 05:14:53;;;;;;;9.73;5.82;;;;;;;10.58;100.00;100096.22;5053436;28;20421;-71
2024/02/15 05:17:18;;;;;;;12.00;6.53;;;;;;;10.58;100.00;100105.38;5071141;28;20035;-70
2024/02/15 05:19:44;;;;;;;6.97;5.47;;;;;;;10.57;100.00;100092.63;5031428;28;20028;-71
2024/02/15 05:22:11;;;;;;;9.60;5.85;;;;;;;10.57;100.00;100098.19;5070732;28;20028;-71
2024/02/15 05:24:38;;;;;;;9.15;5.68;;;;;;;10.57;100.00;100075.16;5067531;28;20112;-71
2024/02/15 05:27:04;;;;;;;11.75;6.15;;;;;;;10.57;100.00;100080.69;5073238;28;20084;-70
2024/02/15 05:29:33;;;;;;;9.82;6.18;;;;;;;10.59;100.00;100067.34;5051988;28;20439;-71
2024/02/15 05:31:59;;;;;;;10.52;6.25;;;;;;;10.58;100.00;100072.06;5089819;28;20035;-71
2024/02/15 05:34:25;;;;;;;10.80;6.03;;;;;;;10.57;100.00;100070.41;5067532;28;20092;-71
2024/02/15 05:36:51;;;;;;;9.50;5.43;;;;;;;10.55;100.00;100064.34;5072722;28;20024;-70
2024/02/15 05:39:20;;;;;;;8.75;5.28;;;;;;;10.57;100.00;100072.38;5070614;28;20414;-71
2024/02/15 05:41:45;;;;;;;10.13;5.65;;;;;;;10.55;100.00;100061.56;5057774;28;20030;-71
2024/02/15 05:44:11;;;;;;;7.53;5.32;;;;;;;10.55;100.00;100056.00;5076191;28;20024;-71
2024/02/15 05:46:40;;;;;;;8.20;5.13;;;;;;;10.52;100.00;100057.44;5053679;28;20032;-70
2024/02/15 05:49:05;;;;;;;10.10;5.50;;;;;;;10.52;100.00;100046.31;5058462;28;20044;-71
2024/02/15 05:51:31;;;;;;;7.90;5.13;;;;;;;10.52;100.00;100049.09;5038615;28;20056;-71
2024/02/15 05:54:00;;;;;;;8.25;5.22;;;;;;;10.50;100.00;100047.75;5050074;28;20548;-71
2024/02/15 05:56:26;;;;;;;8.35;4.97;;;;;;;10.53;100.00;100033.28;5057673;28;20088;-70
2024/02/15 05:58:52;;;;;;;9.18;5.05;;;;;;;10.51;100.00;100043.88;5064868;28;20559;-70
2024/02/15 06:01:17;;;;;;;9.68;5.32;;;;;;;10.50;100.00;100036.66;5033969;28;20063;-70
2024/02/15 06:03:44;;;;;;;10.70;5.22;;;;;;;10.49;100.00;100041.38;5084167;28;20025;-71
2024/02/15 06:06:11;;;;;;;9.68;5.75;;;;;;;10.48;100.00;100042.53;5058161;28;20406;-71
2024/02/15 06:08:37;;;;;;;6.72;4.97;;;;;;;10.48;100.00;100030.59;5048054;28;20456;-70
2024/02/15 06:11:03;;;;;;;9.05;5.18;;;;;;;10.44;100.00;100033.16;5089037;28;20063;-71
2024/02/15 06:13:29;;;;;;;7.35;4.38;;;;;;;10.46;100.00;100032.84;5049767;28;20078;-71
2024/02/15 06:15:54;;;;;;;9.02;4.90;;;;;;;10.44;100.00;100029.56;5057249;28;20655;-71
2024/02/15 06:18:21;;;;;;;9.20;4.57;;;;;;;10.45;100.00;100018.16;5082483;28;20036;-71
2024/02/15 06:20:49;;;;;;;6.93;4.78;;;;;;;10.44;100.00;100022.03;5087410;28;20056;-71
2024/02/15 06:23:18;;;;;;;8.90;4.45;;;;;;;10.44;100.00;100010.94;5067450;28;20043;-70
2024/02/15 06:25:44;;;;;;;9.63;4.75;;;;;;;10.42;100.00;100002.13;5087460;28;20499;-70
2024/02/15 06:28:19;;;;;;;11.73;5.03;;;;;;;10.46;100.00;99996.75;5050583;28;20025;-71
2024/02/15 06:41:43;;;;;;;9.55;5.05;;;;;;;10.45;100.00;99979.28;5058194;28;20024;-71
2024/02/15 06:44:09;;;;;;;10.93;4.90;;;;;;;10.44;100.00;99988.72;5058356;28;20032;-71
2024/02/15 06:46:35;;;;;;;6.82;4.32;;;;;;;10.46;100.00;99989.25;5046788;28;20031;-71
2024/02/15 06:49:00;;;;;;;10.60;5.00;;;;;;;10.45;100.00;99984.84;5026567;28;20103;-71
2024/02/15 06:51:26;;;;;;;8.93;5.10;;;;;;;10.46;100.00;99980.94;5044857;28;20041;-71
2024/02/15 06:53:55;;;;;;;11.45;5.03;;;;;;;10.45;100.00;99976.50;5019727;28;20028;-71
2024/02/15 06:56:20;;;;;;;9.20;4.40;;;;;;;10.46;100.00;99982.88;5037132;28;20035;-71
2024/02/15 06:58:48;;;;;;;9.88;4.78;;;;;;;10.46;100.00;99986.47;5020202;28;20057;-70
2024/02/15 07:01:15;;;;;;;9.10;4.00;;;;;;;10.47;100.00;99990.91;5054587;28;20036;-71
2024/02/15 07:03:42;;;;;;;8.50;4.55;;;;;;;10.48;100.00;99983.41;5035946;28;20037;-71
2024/02/15 07:06:07;;;;;;;9.07;4.88;;;;;;;10.46;100.00;99980.94;5037181;28;20044;-71
2024/02/15 07:08:33;;;;;;;9.00;4.00;;;;;;;10.46;100.00;99978.16;5053402;28;20386;-71
2024/02/15 07:10:58;;;;;;;8.85;4.70;;;;;;;10.45;100.00;99973.75;5053249;28;20025;-70
2024/02/15 07:13:26;;;;;;;7.70;4.68;;;;;;;10.46;100.00;99967.03;5053209;28;20261;-71
2024/02/15 07:15:52;;;;;;;7.35;4.70;;;;;;;10.46;100.00;99953.16;5020937;28;20029;-71
2024/02/15 07:18:22;;;;;;;6.25;3.70;;;;;;;10.48;100.00;99962.03;5036077;28;20082;-71
2024/02/15 07:20:47;;;;;;;7.13;3.85;;;;;;;10.47;100.00;99959.53;5044768;28;20029;-71
2024/02/15 07:23:13;;;;;;;6.22;3.92;;;;;;;10.46;100.00;99964.28;5052285;28;20044;-70
2024/02/15 07:25:39;;;;;;;8.32;4.05;;;;;;;10.47;100.00;99960.38;5025913;28;20033;-70
2024/02/15 07:28:05;;;;;;;8.38;3.90;;;;;;;10.48;100.00;99961.19;5033489;28;20032;-71
2024/02/15 07:30:31;;;;;;;10.75;3.67;;;;;;;10.46;100.00;99960.69;5010905;28;20025;-71
2024/02/15 07:32:56;;;;;;;6.63;3.70;;;;;;;10.46;100.00;99952.34;5033668;28;20041;-70
2024/02/15 07:35:24;;;;;;;6.50;4.00;;;;;;;10.45;100.00;99950.72;5019843;28;20025;-70
2024/02/15 07:37:55;;;;;;;9.73;4.00;;;;;;;10.47;100.00;99952.06;5020624;28;20041;-70
2024/02/15 07:40:27;;;;;;;7.35;3.38;;;;;;;10.46;100.00;99953.16;5017834;28;20021;-71
2024/02/15 07:42:53;;;;;;;8.43;3.55;;;;;;;10.46;100.00;99944.84;5021264;28;20437;-70
2024/02/15 07:45:18;;;;;;;8.65;3.80;;;;;;;10.47;100.00;99949.28;5045183;28;20033;-71
2024/02/15 07:47:45;;;;;;;7.47;3.72;;;;;;;10.47;100.00;99948.44;5060331;28;20074;-71
2024/02/15 07:50:10;;;;;;;10.27;3.65;;;;;;;10.48;100.00;99955.66;5054626;28;20036;-70
2024/02/15 07:52:36;;;;;;;6.07;3.53;;;;;;;10.48;100.00;99950.91;5029928;28;20031;-71
2024/02/15 07:55:08;;;;;;;9.20;3.70;;;;;;;10.48;100.00;99947.31;5070994;28;20032;-71
2024/02/15 07:57:34;;;;;;;8.52;3.47;;;;;;;10.49;100.00;99952.53;5067614;28;20077;-71
2024/02/15 07:59:59;;;;;;;8.82;3.70;;;;;;;10.50;100.00;99942.25;5069906;28;20080;-71
2024/02/15 08:02:28;;;;;;;7.35;3.25;;;;;;;10.50;100.00;99937.56;5066518;28;20546;-71
2024/02/15 08:04:54;;;;;;;7.15;3.35;;;;;;;10.51;100.00;99935.59;5069672;28;20071;-71
2024/02/15 08:07:20;;;;;;;10.05;3.53;;;;;;;10.52;100.00;99929.72;5046480;28;20060;-71
2024/02/15 08:09:46;;;;;;;7.47;3.40;;;;;;;10.56;100.00;99923.53;5048409;28;20371;-71
2024/02/15 08:12:12;;;;;;;9.18;3.80;;;;;;;10.57;100.00;99925.22;5085179;28;20123;-71
2024/02/15 08:14:39;;;;;;;7.13;2.95;;;;;;;10.58;100.00;99937.94;5082634;28;20428;-71
2024/02/15 08:17:08;;;;;;;7.13;2.90;;;;;;;10.64;100.00;99928.38;5071591;28;20038;-71
2024/02/15 08:19:34;;;;;;;7.80;3.72;;;;;;;10.67;100.00;99924.97;5055957;28;20036;-71
2024/02/15 08:22:05;;;;;;;6.03;3.03;;;;;;;10.68;100.00;99921.91;5072137;28;20055;-71
2024/02/15 08:24:30;;;;;;;7.53;3.17;;;;;;;10.74;100.00;99923.44;5053412;28;20089;-71
2024/02/15 08:26:57;;;;;;;4.90;2.78;;;;;;;10.80;100.00;99931.69;5045568;28;20028;-71
2024/02/15 08:29:23;;;;;;;5.55;2.80;;;;;;;10.83;100.00;99929.09;5054613;28;20501;-71
2024/02/15 08:31:48;;;;;;;8.32;3.08;;;;;;;10.87;100.00;99930.13;5072751;28;20024;-71
2024/02/15 08:34:14;;;;;;;7.90;3.00;;;;;;;10.92;100.00;99926.41;5070177;28;20024;-71
2024/02/15 08:36:40;;;;;;;5.15;2.53;;;;;;;10.93;100.00;99923.34;5089458;28;20028;-71
2024/02/15 08:39:05;;;;;;;4.97;2.53;;;;;;;10.97;100.00;99920.75;5069901;28;20111;-71
2024/02/15 08:41:31;;;;;;;7.57;2.80;;;;;;;11.02;100.00;99911.50;5072523;28;20028;-71
2024/02/15 08:43:58;;;;;;;6.80;3.10;;;;;;;11.05;100.00;99921.97;5062229;28;20033;-71
2024/02/15 08:46:24;;;;;;;7.13;3.17;;;;;;;11.08;100.00;99921.34;5040210;28;20033;-71
2024/02/15 08:48:50;;;;;;;7.25;2.58;;;;;;;11.10;100.00;99921.88;5081013;28;20517;-71
2024/02/15 08:51:16;;;;;;;5.72;2.70;;;;;;;11.16;100.00;99912.28;5053852;28;20032;-71
2024/02/15 08:53:41;;;;;;;4.78;2.75;;;;;;;11.19;100.00;99917.19;5069025;28;20016;-71
2024/02/15 08:56:08;;;;;;;6.18;3.08;;;;;;;11.20;100.00;99918.88;5070409;28;20089;-71
2024/02/15 08:58:34;;;;;;;5.45;2.80;;;;;;;11.25;100.00;99913.16;5071016;28;20085;-71
2024/02/15 09:01:00;;;;;;;5.65;2.92;;;;;;;11.31;100.00;99908.31;5087389;28;20024;-71
2024/02/15 09:03:25;;;;;;;5.63;2.72;;;;;;;11.36;100.00;99902.63;5069784;28;20094;-71
2024/02/15 09:05:51;;;;;;;6.65;3.15;;;;;;;11.38;100.00;99897.59;5070228;28;20028;-71
2024/02/15 09:08:20;;;;;;;5.03;3.00;;;;;;;11.43;100.00;99891.09;5068556;28;20464;-71
2024/02/15 09:10:52;;;;;;;6.03;3.08;;;;;;;11.50;100.00;99902.59;5087340;28;20620;-71
2024/02/15 09:13:18;;;;;;;5.40;2.43;;;;;;;11.55;100.00;99894.13;5052757;28;20051;-71
2024/02/15 09:15:43;;;;;;;7.05;2.63;;;;;;;11.61;100.00;99887.28;5054819;28;20024;-71
2024/02/15 09:18:11;;;;;;;5.90;2.83;;;;;;;11.65;100.00;99882.75;5051758;28;20036;-71
2024/02/15 09:20:40;;;;;;;9.10;2.83;;;;;;;11.73;100.00;99886.72;5072035;28;20417;-71
2024/02/15 09:23:09;;;;;;;6.75;2.70;;;;;;;11.76;100.00;99872.19;5023474;28;20527;-71
2024/02/15 09:25:36;;;;;;;7.72;2.70;;;;;;;11.79;100.00;99872.38;5051051;28;20025;-72
2024/02/15 09:28:03;;;;;;;6.80;2.60;;;;;;;11.87;100.00;99883.91;5052505;28;20047;-71
2024/02/15 09:30:28;;;;;;;4.97;2.80;;;;;;;11.94;100.00;99878.72;5072964;28;20032;-71
2024/02/15 09:32:54;;;;;;;5.55;2.72;;;;;;;11.99;100.00;99881.38;5050672;28;20031;-71
2024/02/15 09:35:20;;;;;;;6.50;2.85;;;;;;;12.03;100.00;99872.03;5055903;28;20032;-71
2024/02/15 09:37:49;;;;;;;6.00;2.55;;;;;;;12.07;100.00;99886.97;5050760;28;20039;-71
2024/02/15 09:40:16;;;;;;;5.28;2.80;;;;;;;12.12;100.00;99858.19;5073117;28;20027;-71
2024/02/15 09:42:44;;;;;;;8.02;2.90;;;;;;;12.19;100.00;99860.50;5080902;28;20032;-71
2024/02/15 09:45:10;;;;;;;7.90;2.88;;;;;;;12.26;100.00;99853.34;5047094;28;20436;-71
2024/02/15 09:47:36;;;;;;;4.82;2.60;;;;;;;12.35;100.00;99847.81;5042599;28;20095;-71
2024/02/15 09:50:13;;;;;;;5.00;3.13;;;;;;;12.47;100.00;99844.41;5021388;28;20021;-71
2024/02/15 09:52:49;;;;;;;5.50;2.80;;;;;;;12.57;100.00;99838.53;5038461;28;20048;-71
2024/02/15 09:55:15;;;;;;;5.75;2.70;;;;;;;12.70;100.00;99840.38;5047771;28;20033;-71
2024/02/15 09:57:44;;;;;;;6.97;2.72;;;;;;;12.87;100.00;99841.53;5032624;28;20035;-71
2024/02/15 10:00:15;;;;;;;7.80;3.00;;;;;;;12.93;100.00;99849.41;5004977;28;20024;-71
2024/02/15 10:02:44;;;;;;;6.50;2.30;;;;;;;13.04;100.00;99851.88;5018205;28;20042;-71
2024/02/15 10:05:11;;;;;;;4.90;2.60;;;;;;;13.15;100.00;99847.66;5022003;28;20672;-71
2024/02/15 10:07:41;;;;;;;7.03;2.70;;;;;;;13.24;100.00;99842.06;5011107;28;20029;-71
2024/02/15 10:10:22;;;;;;;6.38;2.78;;;;;;;13.35;100.00;99840.63;5020993;28;20053;-71
2024/02/15 10:12:54;;;;;;;7.78;2.65;;;;;;;13.45;100.00;99854.22;5019715;28;20029;-71
2024/02/15 10:15:33;;;;;;;6.82;2.92;;;;;;;13.55;100.00;99859.47;5037783;28;20060;-71
2024/02/15 10:17:59;;;;;;;3.17;2.25;;;;;;;13.61;100.00;99863.72;5037538;28;20033;-71
2024/02/15 10:20:27;;;;;;;4.97;2.75;;;;;;;13.68;100.00;99867.97;5040738;28;20542;-71
2024/02/15 10:23:17;;;;;;;5.13;2.40;;;;;;;13.76;100.00;99881.09;5041228;28;20051;-71
2024/02/15 10:25:42;;;;;;;9.77;2.80;;;;;;;13.80;100.00;99865.34;5044589;28;20501;-71
2024/02/15 10:28:09;;;;;;;5.80;2.08;;;;;;;13.88;100.00;99861.72;5037193;28;20051;-71
2024/02/15 10:30:35;;;;;;;4.93;2.80;;;;;;;13.94;100.00;99860.38;5036972;28;20033;-71
2024/02/15 10:33:04;;;;;;;6.22;2.65;;;;;;;13.99;100.00;99851.81;5053411;28;20040;-71
2024/02/15 10:35:31;;;;;;;5.68;2.50;;;;;;;14.04;100.00;99846.06;5037020;28;20035;-71
2024/02/15 10:38:09;;;;;;;6.82;2.95;;;;;;;14.13;100.00;99845.22;5035391;28;20030;-71
2024/02/15 10:40:35;;;;;;;4.40;2.50;;;;;;;14.20;100.00;99842.72;5053416;28;20044;-71
2024/02/15 10:43:03;;;;;;;5.63;2.60;;;;;;;14.26;100.00;99845.00;5036979;28;20435;-71
2024/02/15 10:45:29;;;;;;;5.22;2.67;;;;;;;14.32;100.00;99842.84;5028691;28;20033;-71
2024/02/15 10:47:54;;;;;;;6.20;2.55;;;;;;;14.36;100.00;99837.41;5035900;28;20509;-71
2024/02/15 10:50:20;;;;;;;5.45;2.50;;;;;;;14.38;100.00;99835.09;5052042;28;20033;-71
2024/02/15 10:52:56;;;;;;;5.50;2.47;;;;;;;14.45;100.00;99827.81;5036581;28;20029;-71
2024/02/15 10:55:25;;;;;;;5.75;2.72;;;;;;;14.48;100.00;99813.16;5036914;28;20029;-71
2024/02/15 10:57:50;;;;;;;5.78;2.58;;;;;;;14.56;100.00;99824.66;5053577;28;20036;-71
2024/02/15 11:00:21;;;;;;;3.75;2.17;;;;;;;14.58;100.00;99823.16;5053345;28;20025;-71
2024/02/15 11:02:52;;;;;;;5.32;2.60;;;;;;;14.65;100.00;99814.25;5021578;28;20032;-71
2024/02/15 11:05:21;;;;;;;5.50;2.50;;;;;;;14.68;100.00;99802.38;5053522;28;20064;-71
2024/02/15 11:07:46;;;;;;;5.75;2.72;;;;;;;14.75;100.00;99799.88;5037148;28;20367;-71
2024/02/15 11:10:16;;;;;;;7.82;2.90;;;;;;;14.83;100.00;99796.22;5036914;28;20063;-71
2024/02/15 11:12:42;;;;;;;4.65;2.35;;;;;;;14.92;100.00;99790.56;5030282;28;20557;-71
2024/02/15 11:15:12;;;;;;;5.75;2.55;;;;;;;15.00;100.00;99788.84;5036829;28;20029;-71
2024/02/15 11:17:39;;;;;;;6.63;2.58;;;;;;;15.09;100.00;99787.59;5037392;28;20025;-71
2024/02/15 11:20:12;;;;;;;6.18;2.30;;;;;;;15.17;100.00;99777.50;5035465;28;20045;-71
2024/02/15 11:22:38;;;;;;;5.30;2.15;;;;;;;15.23;100.00;99773.34;5041776;28;20121;-71
2024/02/15 11:25:08;;;;;;;5.07;2.30;;;;;;;15.36;100.00;99766.63;5053058;28;20048;-71
2024/02/15 11:27:36;;;;;;;5.45;2.45;;;;;;;15.48;100.00;99768.66;5021130;28;20029;-71